createdAt,value
2022-12-11T00:01:18.504Z,0.60
2022-12-11T00:03:46.614Z,0.56
2022-12-11T00:06:16.487Z,0.60
2022-12-11T00:08:44.167Z,0.63
2022-12-11T00:11:17.129Z,0.71
2022-12-11T00:13:44.766Z,0.72
2022-12-11T00:16:12.253Z,0.72
2022-12-11T00:18:39.843Z,0.69
2022-12-11T00:21:08.938Z,0.55
2022-12-11T00:23:36.781Z,0.72
2022-12-11T00:26:09.680Z,0.73
2022-12-11T00:28:36.862Z,0.59
2022-12-11T00:31:09.269Z,0.69
2022-12-11T00:33:36.254Z,0.67
2022-12-11T00:36:04.059Z,0.72
2022-12-11T00:38:31.322Z,0.65
2022-12-11T00:40:59.649Z,0.59
2022-12-11T00:43:26.619Z,0.49
2022-12-11T00:45:53.720Z,0.75
2022-12-11T00:48:20.584Z,0.74
2022-12-11T00:50:47.611Z,0.66
2022-12-11T00:53:14.626Z,0.77
2022-12-11T00:55:42.957Z,0.79
2022-12-11T00:58:11.141Z,0.68
2022-12-11T01:00:39.516Z,0.80
2022-12-11T01:03:07.158Z,0.78
2022-12-11T01:05:34.539Z,0.65
2022-12-11T01:08:02.108Z,0.72
2022-12-11T01:10:29.264Z,0.58
2022-12-11T01:13:05.537Z,0.42
2022-12-11T01:15:41.356Z,0.62
2022-12-11T01:18:13.361Z,0.34
2022-12-11T01:20:42.721Z,0.63
2022-12-11T01:23:13.216Z,0.59
2022-12-11T01:25:41.456Z,0.71
2022-12-11T01:28:09.673Z,0.76
2022-12-11T01:30:37.213Z,0.72
2022-12-11T01:33:04.853Z,0.74
2022-12-11T01:35:32.231Z,0.73
2022-12-11T01:37:59.561Z,0.52
2022-12-11T01:40:26.584Z,0.52
2022-12-11T01:42:53.698Z,0.49
2022-12-11T01:45:34.659Z,0.55
2022-12-11T01:48:14.376Z,0.51
2022-12-11T01:50:48.768Z,0.52
2022-12-11T01:53:21.440Z,0.54
2022-12-11T01:55:50.873Z,0.47
2022-12-11T01:58:20.625Z,0.56
2022-12-11T02:00:47.925Z,0.40
2022-12-11T02:03:14.937Z,0.36
2022-12-11T02:05:42.223Z,0.41
2022-12-11T02:08:09.786Z,0.36
2022-12-11T02:11:04.892Z,0.51
2022-12-11T02:13:57.461Z,0.52
2022-12-11T02:16:40.522Z,0.47
2022-12-11T02:19:57.878Z,0.48
2022-12-11T02:22:51.399Z,0.45
2022-12-11T02:25:31.524Z,0.43
2022-12-11T02:28:20.108Z,0.44
2022-12-11T02:30:56.052Z,0.30
2022-12-11T02:33:34.728Z,0.10
2022-12-11T02:36:05.073Z,-0.01
2022-12-11T02:38:36.273Z,0.07
2022-12-11T02:41:05.353Z,0.19
2022-12-11T02:43:34.174Z,0.11
2022-12-11T02:46:04.859Z,0.23
2022-12-11T02:48:33.949Z,0.14
2022-12-11T02:51:03.416Z,0.22
2022-12-11T02:53:33.322Z,0.22
2022-12-11T02:56:21.290Z,0.09
2022-12-11T02:58:58.183Z,0.10
2022-12-11T03:01:26.437Z,0.10
2022-12-11T03:03:54.977Z,-0.02
2022-12-11T03:06:27.895Z,-0.08
2022-12-11T03:08:55.009Z,-0.11
2022-12-11T03:11:31.535Z,-0.15
2022-12-11T03:14:05.265Z,-0.34
2022-12-11T03:16:40.837Z,-0.17
2022-12-11T03:19:23.804Z,-0.11
2022-12-11T03:21:59.885Z,-0.37
2022-12-11T03:24:33.320Z,-0.19
2022-12-11T03:27:11.145Z,-0.40
2022-12-11T03:29:48.353Z,-0.42
2022-12-11T03:32:23.283Z,-0.28
2022-12-11T03:35:04.192Z,-0.32
2022-12-11T03:37:37.743Z,-0.44
2022-12-11T03:40:16.699Z,-0.30
2022-12-11T03:42:47.296Z,-0.21
2022-12-11T03:45:21.316Z,-0.46
2022-12-11T03:48:00.328Z,-0.37
2022-12-11T03:53:12.477Z,-0.46
2022-12-11T03:55:50.089Z,-0.58
2022-12-11T03:58:18.211Z,-0.64
2022-12-11T04:00:45.644Z,-0.54
2022-12-11T04:03:18.361Z,-0.60
2022-12-11T04:08:35.775Z,-0.63
2022-12-11T04:11:23.615Z,-0.59
2022-12-11T04:14:10.947Z,-0.57
2022-12-11T04:22:39.763Z,-0.52
2022-12-11T04:30:38.419Z,-0.61
2022-12-11T04:36:02.627Z,-0.59
2022-12-11T04:43:58.244Z,-0.58
2022-12-11T04:46:27.735Z,-0.64
2022-12-11T04:51:49.103Z,-0.68
2022-12-11T05:05:12.783Z,-0.70
2022-12-11T05:10:22.493Z,-0.80
2022-12-11T05:42:36.481Z,-0.98
2022-12-11T05:50:33.264Z,-0.72
2022-12-11T05:53:05.062Z,-0.82
2022-12-11T05:55:40.487Z,-0.78
2022-12-11T06:03:30.608Z,-0.90
2022-12-11T06:08:44.028Z,-0.92
2022-12-11T06:11:23.589Z,-0.87
2022-12-11T06:13:51.918Z,-1.07
2022-12-11T06:16:21.135Z,-0.95
2022-12-11T06:24:28.935Z,-0.72
2022-12-11T06:48:54.456Z,-0.95
2022-12-11T09:15:36.319Z,-0.86
2022-12-11T09:29:09.816Z,-0.78
2022-12-11T09:39:46.231Z,-0.68
2022-12-11T09:50:51.284Z,-0.44
2022-12-11T09:59:27.296Z,-0.35
2022-12-11T10:05:36.621Z,-0.39
2022-12-11T10:08:35.446Z,-0.52
2022-12-11T10:11:12.405Z,-0.22
2022-12-11T10:26:18.045Z,-0.60
2022-12-11T10:31:58.865Z,-0.43
2022-12-11T10:34:58.632Z,-0.39
2022-12-11T10:40:12.597Z,-0.48
2022-12-11T10:54:11.919Z,-0.57
2022-12-11T11:11:26.345Z,-0.71
2022-12-11T11:22:33.297Z,-0.63
2022-12-11T11:28:04.685Z,-0.44
2022-12-11T11:37:01.169Z,-0.96
2022-12-11T11:39:42.096Z,-0.70
2022-12-11T11:42:18.280Z,-0.77
2022-12-11T11:44:56.081Z,-0.80
2022-12-11T11:50:19.633Z,-0.82
2022-12-11T11:52:58.311Z,-1.39
2022-12-11T11:55:43.622Z,-1.02
2022-12-11T11:58:25.308Z,-1.15
2022-12-11T12:03:49.448Z,-0.95
2022-12-11T12:16:29.287Z,-1.00
2022-12-11T12:19:35.043Z,-1.01
2022-12-11T12:25:26.163Z,-1.13
2022-12-11T12:34:04.497Z,-1.02
2022-12-11T12:55:38.117Z,-1.30
2022-12-11T12:58:28.926Z,-1.22
2022-12-11T13:12:50.330Z,-1.27
2022-12-11T13:24:19.959Z,-0.97
2022-12-11T13:29:39.260Z,-1.20
2022-12-11T13:35:05.440Z,-0.98
2022-12-11T13:40:44.653Z,-0.96
2022-12-11T13:46:25.950Z,-1.00
2022-12-11T14:15:28.736Z,-1.17
2022-12-11T14:17:57.263Z,-1.16
2022-12-11T14:23:20.490Z,-1.00
2022-12-11T14:32:47.466Z,-1.30
2022-12-11T17:08:27.590Z,-0.27
2022-12-11T17:19:34.227Z,-0.41
2022-12-11T17:22:02.379Z,-0.44
2022-12-11T17:30:00.037Z,-0.24
2022-12-11T18:09:37.545Z,0.12
2022-12-11T18:23:03.078Z,0.03
2022-12-11T18:25:32.286Z,-0.02
2022-12-11T18:28:26.290Z,0.22
2022-12-11T18:33:39.710Z,0.45
2022-12-11T18:41:37.705Z,0.49
2022-12-11T18:49:39.105Z,0.23
2022-12-11T18:52:06.760Z,0.30
2022-12-11T18:54:34.818Z,0.31
2022-12-11T18:57:03.208Z,0.46
2022-12-11T18:59:35.001Z,0.10
2022-12-11T19:02:03.546Z,0.23
2022-12-11T19:09:58.406Z,0.00
2022-12-11T19:12:26.449Z,0.24
2022-12-11T19:14:55.849Z,0.40
2022-12-11T19:17:32.374Z,0.39
2022-12-11T19:20:05.230Z,0.28
2022-12-11T19:25:31.175Z,0.45
2022-12-11T19:33:36.456Z,0.13
2022-12-11T19:36:12.595Z,0.30
2022-12-11T19:38:49.256Z,0.29
2022-12-11T19:44:08.895Z,0.23
2022-12-11T19:46:37.395Z,0.59
2022-12-11T19:49:05.245Z,0.64
2022-12-11T19:51:39.138Z,0.37
2022-12-11T19:54:08.687Z,0.38
2022-12-11T19:56:38.470Z,0.55
2022-12-11T19:59:08.677Z,0.62
2022-12-11T20:01:42.117Z,0.61
2022-12-11T20:04:13.718Z,0.64
2022-12-11T20:06:49.328Z,0.46
2022-12-11T20:09:18.309Z,0.17
2022-12-11T20:11:49.919Z,0.59
2022-12-11T20:14:24.820Z,0.47
2022-12-11T20:17:14.623Z,0.61
2022-12-11T20:19:47.654Z,0.34
2022-12-11T20:22:19.526Z,0.51
2022-12-11T20:24:46.957Z,0.65
2022-12-11T20:29:55.555Z,0.64
2022-12-11T20:32:23.195Z,0.55
2022-12-11T20:34:52.558Z,0.77
2022-12-11T20:37:21.051Z,0.37
2022-12-11T20:39:49.583Z,0.58
2022-12-11T20:42:16.777Z,0.61
2022-12-11T20:44:48.782Z,0.76
2022-12-11T20:47:22.072Z,0.72
2022-12-11T20:49:52.613Z,0.52
2022-12-11T20:52:22.936Z,0.59
2022-12-11T20:54:50.578Z,0.77
2022-12-11T20:57:19.161Z,0.41
2022-12-11T20:59:47.844Z,0.56
2022-12-11T21:02:16.091Z,0.67
2022-12-11T21:04:45.460Z,0.36
2022-12-11T21:07:12.915Z,0.59
2022-12-11T21:09:40.558Z,0.63
2022-12-11T21:12:08.323Z,0.44
2022-12-11T21:14:36.279Z,0.59
2022-12-11T21:17:04.825Z,0.63
2022-12-11T21:19:33.406Z,0.92
2022-12-11T21:22:00.797Z,0.91
2022-12-11T21:24:30.144Z,0.71
2022-12-11T21:27:00.274Z,0.88
2022-12-11T21:29:36.465Z,0.91
2022-12-11T21:32:04.611Z,0.94
2022-12-11T21:34:36.727Z,0.72
2022-12-11T21:37:04.163Z,0.65
2022-12-11T21:39:41.258Z,0.61
2022-12-11T21:42:08.450Z,0.87
2022-12-11T21:47:29.499Z,0.86
2022-12-11T21:52:48.487Z,0.85
2022-12-11T21:57:58.603Z,0.80
2022-12-11T22:03:07.797Z,0.97
2022-12-11T22:05:35.799Z,0.91
2022-12-11T22:08:03.528Z,0.96
2022-12-11T22:13:13.138Z,1.07
2022-12-11T22:15:41.419Z,0.90
2022-12-11T22:20:51.171Z,0.87
2022-12-11T22:23:18.316Z,1.09
2022-12-11T22:25:46.216Z,1.07
2022-12-11T22:33:39.153Z,0.88
2022-12-11T22:36:07.145Z,0.91
2022-12-11T22:38:35.585Z,1.15
2022-12-11T22:41:17.549Z,1.09
2022-12-11T22:43:49.245Z,1.24
2022-12-11T22:48:59.974Z,1.14
2022-12-11T22:51:28.557Z,0.96
2022-12-11T22:53:55.865Z,0.97
2022-12-11T22:56:22.983Z,1.23
2022-12-11T22:58:51.232Z,0.96
2022-12-11T23:01:21.897Z,1.28
2022-12-11T23:03:50.049Z,1.04
2022-12-11T23:06:21.280Z,1.24
2022-12-11T23:08:49.620Z,1.04
2022-12-11T23:11:30.735Z,1.16
2022-12-11T23:13:58.315Z,1.25
2022-12-11T23:19:08.980Z,1.19
2022-12-11T23:21:38.740Z,0.98
2022-12-11T23:24:07.662Z,1.23
2022-12-11T23:26:44.368Z,1.07
2022-12-11T23:34:35.827Z,0.94
2022-12-11T23:37:03.101Z,1.19
2022-12-11T23:39:33.182Z,1.25
2022-12-11T23:42:00.353Z,1.03
2022-12-11T23:44:27.793Z,1.52
2022-12-11T23:46:59.386Z,1.56
2022-12-11T23:49:27.845Z,1.56
2022-12-11T23:51:55.044Z,1.47
2022-12-11T23:54:22.839Z,1.45
2022-12-11T23:56:49.956Z,1.48
2022-12-11T23:59:19.022Z,1.91
